sensor_id;sensor_type;location;lat;lon;timestamp;P1;durP1;ratioP1;P2;durP2;ratioP2
63536;SDS011;49686;51.880;5.632;2023-04-29T00:00:17;33.22;;;18.55;;
63536;SDS011;49686;51.880;5.632;2023-04-29T00:02:44;36.78;;;19.70;;
63536;SDS011;49686;51.880;5.632;2023-04-29T00:05:11;33.08;;;18.25;;
63536;SDS011;49686;51.880;5.632;2023-04-29T00:07:38;28.50;;;17.25;;
63536;SDS011;49686;51.880;5.632;2023-04-29T00:10:05;33.45;;;18.65;;
63536;SDS011;49686;51.880;5.632;2023-04-29T00:12:32;34.13;;;18.75;;
63536;SDS011;49686;51.880;5.632;2023-04-29T00:15:00;32.97;;;18.17;;
63536;SDS011;49686;51.880;5.632;2023-04-29T00:17:27;35.13;;;19.03;;
63536;SDS011;49686;51.880;5.632;2023-04-29T00:19:54;30.23;;;17.17;;
63536;SDS011;49686;51.880;5.632;2023-04-29T00:22:21;33.08;;;17.65;;
63536;SDS011;49686;51.880;5.632;2023-04-29T00:24:47;28.88;;;16.50;;
63536;SDS011;49686;51.880;5.632;2023-04-29T00:27:14;27.05;;;14.65;;
63536;SDS011;49686;51.880;5.632;2023-04-29T00:29:41;38.45;;;18.92;;
63536;SDS011;49686;51.880;5.632;2023-04-29T00:32:09;32.95;;;17.02;;
63536;SDS011;49686;51.880;5.632;2023-04-29T00:34:36;37.85;;;18.10;;
63536;SDS011;49686;51.880;5.632;2023-04-29T00:37:03;33.53;;;17.48;;
63536;SDS011;49686;51.880;5.632;2023-04-29T00:39:29;33.17;;;15.27;;
63536;SDS011;49686;51.880;5.632;2023-04-29T00:41:56;32.70;;;17.05;;
63536;SDS011;49686;51.880;5.632;2023-04-29T00:44:23;34.28;;;17.23;;
63536;SDS011;49686;51.880;5.632;2023-04-29T00:46:50;40.40;;;18.30;;
63536;SDS011;49686;51.880;5.632;2023-04-29T00:49:18;38.42;;;17.73;;
63536;SDS011;49686;51.880;5.632;2023-04-29T00:51:45;28.70;;;16.17;;
63536;SDS011;49686;51.880;5.632;2023-04-29T00:54:13;34.20;;;17.92;;
63536;SDS011;49686;51.880;5.632;2023-04-29T00:56:40;38.30;;;17.30;;
63536;SDS011;49686;51.880;5.632;2023-04-29T00:59:10;33.40;;;16.42;;
63536;SDS011;49686;51.880;5.632;2023-04-29T01:01:37;37.30;;;17.67;;
63536;SDS011;49686;51.880;5.632;2023-04-29T01:04:04;34.97;;;16.80;;
63536;SDS011;49686;51.880;5.632;2023-04-29T01:06:35;39.22;;;17.77;;
63536;SDS011;49686;51.880;5.632;2023-04-29T01:09:20;35.47;;;16.38;;
63536;SDS011;49686;51.880;5.632;2023-04-29T01:12:05;33.97;;;16.60;;
63536;SDS011;49686;51.880;5.632;2023-04-29T01:14:41;29.58;;;15.15;;
63536;SDS011;49686;51.880;5.632;2023-04-29T01:17:14;37.85;;;17.83;;
63536;SDS011;49686;51.880;5.632;2023-04-29T01:19:45;37.90;;;17.73;;
63536;SDS011;49686;51.880;5.632;2023-04-29T01:22:18;35.90;;;16.33;;
63536;SDS011;49686;51.880;5.632;2023-04-29T01:24:46;33.80;;;15.68;;
63536;SDS011;49686;51.880;5.632;2023-04-29T01:27:16;36.38;;;15.57;;
63536;SDS011;49686;51.880;5.632;2023-04-29T01:29:50;35.80;;;16.98;;
63536;SDS011;49686;51.880;5.632;2023-04-29T01:32:24;35.60;;;16.15;;
63536;SDS011;49686;51.880;5.632;2023-04-29T01:34:58;36.97;;;16.27;;
63536;SDS011;49686;51.880;5.632;2023-04-29T01:37:31;38.50;;;16.65;;
63536;SDS011;49686;51.880;5.632;2023-04-29T01:40:09;39.33;;;17.65;;
63536;SDS011;49686;51.880;5.632;2023-04-29T01:42:43;34.33;;;16.08;;
63536;SDS011;49686;51.880;5.632;2023-04-29T01:45:13;40.95;;;17.63;;
63536;SDS011;49686;51.880;5.632;2023-04-29T01:47:41;37.15;;;16.95;;
63536;SDS011;49686;51.880;5.632;2023-04-29T01:50:10;37.63;;;17.77;;
63536;SDS011;49686;51.880;5.632;2023-04-29T01:52:36;35.58;;;16.95;;
63536;SDS011;49686;51.880;5.632;2023-04-29T01:55:04;42.13;;;17.48;;
63536;SDS011;49686;51.880;5.632;2023-04-29T01:57:33;42.60;;;17.83;;
63536;SDS011;49686;51.880;5.632;2023-04-29T02:00:00;38.50;;;18.77;;
63536;SDS011;49686;51.880;5.632;2023-04-29T02:02:27;38.15;;;16.58;;
63536;SDS011;49686;51.880;5.632;2023-04-29T02:04:54;39.90;;;17.05;;
63536;SDS011;49686;51.880;5.632;2023-04-29T02:07:21;38.05;;;17.35;;
63536;SDS011;49686;51.880;5.632;2023-04-29T02:09:48;40.20;;;19.40;;
63536;SDS011;49686;51.880;5.632;2023-04-29T02:12:15;46.10;;;19.50;;
63536;SDS011;49686;51.880;5.632;2023-04-29T02:14:43;45.22;;;19.88;;
63536;SDS011;49686;51.880;5.632;2023-04-29T02:17:10;38.30;;;16.97;;
63536;SDS011;49686;51.880;5.632;2023-04-29T02:19:37;44.67;;;18.63;;
63536;SDS011;49686;51.880;5.632;2023-04-29T02:22:03;39.63;;;18.00;;
63536;SDS011;49686;51.880;5.632;2023-04-29T02:24:30;46.30;;;19.23;;
63536;SDS011;49686;51.880;5.632;2023-04-29T02:26:59;40.33;;;18.15;;
63536;SDS011;49686;51.880;5.632;2023-04-29T02:29:25;39.78;;;17.73;;
63536;SDS011;49686;51.880;5.632;2023-04-29T02:31:53;31.95;;;15.43;;
63536;SDS011;49686;51.880;5.632;2023-04-29T02:34:20;33.55;;;16.02;;
63536;SDS011;49686;51.880;5.632;2023-04-29T02:36:47;35.80;;;18.02;;
63536;SDS011;49686;51.880;5.632;2023-04-29T02:39:14;34.28;;;15.95;;
63536;SDS011;49686;51.880;5.632;2023-04-29T02:41:41;27.80;;;14.38;;
63536;SDS011;49686;51.880;5.632;2023-04-29T02:44:07;42.03;;;18.63;;
63536;SDS011;49686;51.880;5.632;2023-04-29T02:46:34;35.70;;;16.35;;
63536;SDS011;49686;51.880;5.632;2023-04-29T02:49:02;42.15;;;17.55;;
63536;SDS011;49686;51.880;5.632;2023-04-29T02:51:32;40.05;;;17.30;;
63536;SDS011;49686;51.880;5.632;2023-04-29T02:53:59;41.22;;;18.08;;
63536;SDS011;49686;51.880;5.632;2023-04-29T02:56:26;35.63;;;16.63;;
63536;SDS011;49686;51.880;5.632;2023-04-29T02:58:53;39.10;;;17.67;;
63536;SDS011;49686;51.880;5.632;2023-04-29T03:01:19;39.67;;;17.35;;
63536;SDS011;49686;51.880;5.632;2023-04-29T03:03:46;43.03;;;19.05;;
63536;SDS011;49686;51.880;5.632;2023-04-29T03:06:15;32.97;;;15.60;;
63536;SDS011;49686;51.880;5.632;2023-04-29T03:08:41;37.10;;;16.97;;
63536;SDS011;49686;51.880;5.632;2023-04-29T03:11:08;38.60;;;17.45;;
63536;SDS011;49686;51.880;5.632;2023-04-29T03:13:35;35.95;;;17.73;;
63536;SDS011;49686;51.880;5.632;2023-04-29T03:16:02;37.72;;;18.52;;
63536;SDS011;49686;51.880;5.632;2023-04-29T03:18:29;33.90;;;17.40;;
63536;SDS011;49686;51.880;5.632;2023-04-29T03:20:55;35.78;;;17.90;;
63536;SDS011;49686;51.880;5.632;2023-04-29T03:23:24;41.20;;;17.95;;
63536;SDS011;49686;51.880;5.632;2023-04-29T03:25:50;37.00;;;18.48;;
63536;SDS011;49686;51.880;5.632;2023-04-29T03:28:17;35.83;;;18.90;;
63536;SDS011;49686;51.880;5.632;2023-04-29T03:30:44;36.35;;;16.95;;
63536;SDS011;49686;51.880;5.632;2023-04-29T03:33:11;39.08;;;18.50;;
63536;SDS011;49686;51.880;5.632;2023-04-29T03:35:37;38.22;;;17.23;;
63536;SDS011;49686;51.880;5.632;2023-04-29T03:38:04;36.53;;;18.50;;
63536;SDS011;49686;51.880;5.632;2023-04-29T03:40:32;39.50;;;18.20;;
63536;SDS011;49686;51.880;5.632;2023-04-29T03:42:59;40.10;;;18.38;;
63536;SDS011;49686;51.880;5.632;2023-04-29T03:45:26;37.45;;;17.80;;
63536;SDS011;49686;51.880;5.632;2023-04-29T03:47:53;37.10;;;18.20;;
63536;SDS011;49686;51.880;5.632;2023-04-29T03:50:21;38.70;;;17.63;;
63536;SDS011;49686;51.880;5.632;2023-04-29T03:52:48;37.83;;;19.38;;
63536;SDS011;49686;51.880;5.632;2023-04-29T03:55:15;39.53;;;18.02;;
63536;SDS011;49686;51.880;5.632;2023-04-29T03:57:43;39.53;;;18.23;;
63536;SDS011;49686;51.880;5.632;2023-04-29T04:00:10;39.63;;;17.27;;
63536;SDS011;49686;51.880;5.632;2023-04-29T04:02:38;39.03;;;17.75;;
63536;SDS011;49686;51.880;5.632;2023-04-29T04:05:05;36.30;;;16.95;;
63536;SDS011;49686;51.880;5.632;2023-04-29T04:07:33;39.05;;;18.58;;
63536;SDS011;49686;51.880;5.632;2023-04-29T04:10:00;36.72;;;17.05;;
63536;SDS011;49686;51.880;5.632;2023-04-29T04:12:26;32.78;;;16.13;;
63536;SDS011;49686;51.880;5.632;2023-04-29T04:14:54;35.25;;;18.08;;
63536;SDS011;49686;51.880;5.632;2023-04-29T04:17:21;32.97;;;16.55;;
63536;SDS011;49686;51.880;5.632;2023-04-29T04:19:48;30.23;;;16.45;;
63536;SDS011;49686;51.880;5.632;2023-04-29T04:22:15;26.80;;;16.63;;
63536;SDS011;49686;51.880;5.632;2023-04-29T04:24:42;33.75;;;17.80;;
63536;SDS011;49686;51.880;5.632;2023-04-29T04:27:09;35.47;;;17.13;;
63536;SDS011;49686;51.880;5.632;2023-04-29T04:29:35;32.60;;;16.55;;
63536;SDS011;49686;51.880;5.632;2023-04-29T04:32:04;35.78;;;16.65;;
63536;SDS011;49686;51.880;5.632;2023-04-29T04:34:31;34.97;;;17.60;;
63536;SDS011;49686;51.880;5.632;2023-04-29T04:36:57;28.33;;;16.52;;
63536;SDS011;49686;51.880;5.632;2023-04-29T04:39:24;30.40;;;15.82;;
63536;SDS011;49686;51.880;5.632;2023-04-29T04:41:51;33.75;;;15.98;;
63536;SDS011;49686;51.880;5.632;2023-04-29T04:44:18;30.13;;;16.27;;
63536;SDS011;49686;51.880;5.632;2023-04-29T04:46:44;30.50;;;15.35;;
63536;SDS011;49686;51.880;5.632;2023-04-29T04:49:13;27.52;;;15.32;;
63536;SDS011;49686;51.880;5.632;2023-04-29T04:51:42;28.20;;;15.77;;
63536;SDS011;49686;51.880;5.632;2023-04-29T04:54:10;27.90;;;15.40;;
63536;SDS011;49686;51.880;5.632;2023-04-29T04:56:37;27.42;;;14.50;;
63536;SDS011;49686;51.880;5.632;2023-04-29T04:59:04;25.70;;;15.25;;
63536;SDS011;49686;51.880;5.632;2023-04-29T05:01:31;26.52;;;14.05;;
63536;SDS011;49686;51.880;5.632;2023-04-29T05:03:58;28.33;;;15.45;;
63536;SDS011;49686;51.880;5.632;2023-04-29T05:06:26;29.00;;;15.73;;
63536;SDS011;49686;51.880;5.632;2023-04-29T05:08:53;31.13;;;17.10;;
63536;SDS011;49686;51.880;5.632;2023-04-29T05:11:20;29.92;;;16.10;;
63536;SDS011;49686;51.880;5.632;2023-04-29T05:13:47;28.88;;;16.48;;
63536;SDS011;49686;51.880;5.632;2023-04-29T05:16:14;32.45;;;17.30;;
63536;SDS011;49686;51.880;5.632;2023-04-29T05:18:41;32.03;;;17.23;;
63536;SDS011;49686;51.880;5.632;2023-04-29T05:21:07;31.30;;;17.35;;
63536;SDS011;49686;51.880;5.632;2023-04-29T05:23:38;31.73;;;18.05;;
63536;SDS011;49686;51.880;5.632;2023-04-29T05:26:04;25.83;;;15.13;;
63536;SDS011;49686;51.880;5.632;2023-04-29T05:28:31;28.05;;;16.27;;
63536;SDS011;49686;51.880;5.632;2023-04-29T05:30:58;26.73;;;16.15;;
63536;SDS011;49686;51.880;5.632;2023-04-29T05:33:25;30.38;;;17.58;;
63536;SDS011;49686;51.880;5.632;2023-04-29T05:35:52;29.45;;;16.23;;
63536;SDS011;49686;51.880;5.632;2023-04-29T05:38:19;27.27;;;15.32;;
63536;SDS011;49686;51.880;5.632;2023-04-29T05:40:47;26.55;;;15.73;;
63536;SDS011;49686;51.880;5.632;2023-04-29T05:43:15;24.80;;;15.70;;
63536;SDS011;49686;51.880;5.632;2023-04-29T05:45:45;25.73;;;14.70;;
63536;SDS011;49686;51.880;5.632;2023-04-29T05:48:11;24.05;;;14.95;;
63536;SDS011;49686;51.880;5.632;2023-04-29T05:50:38;24.98;;;13.98;;
63536;SDS011;49686;51.880;5.632;2023-04-29T05:53:05;25.25;;;14.23;;
63536;SDS011;49686;51.880;5.632;2023-04-29T05:55:32;21.38;;;13.63;;
63536;SDS011;49686;51.880;5.632;2023-04-29T05:58:00;26.00;;;16.08;;
63536;SDS011;49686;51.880;5.632;2023-04-29T06:00:27;23.73;;;14.40;;
63536;SDS011;49686;51.880;5.632;2023-04-29T06:02:54;27.65;;;14.90;;
63536;SDS011;49686;51.880;5.632;2023-04-29T06:05:24;26.50;;;15.10;;
63536;SDS011;49686;51.880;5.632;2023-04-29T06:07:52;23.88;;;14.50;;
63536;SDS011;49686;51.880;5.632;2023-04-29T06:10:18;23.50;;;15.13;;
63536;SDS011;49686;51.880;5.632;2023-04-29T06:12:45;22.85;;;14.48;;
63536;SDS011;49686;51.880;5.632;2023-04-29T06:15:13;19.77;;;13.60;;
63536;SDS011;49686;51.880;5.632;2023-04-29T06:17:40;21.17;;;14.07;;
63536;SDS011;49686;51.880;5.632;2023-04-29T06:20:09;24.60;;;15.07;;
63536;SDS011;49686;51.880;5.632;2023-04-29T06:22:36;22.92;;;14.25;;
63536;SDS011;49686;51.880;5.632;2023-04-29T06:25:03;24.70;;;14.68;;
63536;SDS011;49686;51.880;5.632;2023-04-29T06:27:30;23.35;;;13.70;;
63536;SDS011;49686;51.880;5.632;2023-04-29T06:29:57;19.75;;;12.75;;
63536;SDS011;49686;51.880;5.632;2023-04-29T06:32:25;22.73;;;14.85;;
63536;SDS011;49686;51.880;5.632;2023-04-29T06:34:52;26.40;;;14.82;;
63536;SDS011;49686;51.880;5.632;2023-04-29T06:37:18;20.25;;;12.85;;
63536;SDS011;49686;51.880;5.632;2023-04-29T06:41:07;20.55;;;12.75;;
63536;SDS011;49686;51.880;5.632;2023-04-29T06:43:34;20.50;;;14.02;;
63536;SDS011;49686;51.880;5.632;2023-04-29T06:46:01;21.15;;;13.90;;
63536;SDS011;49686;51.880;5.632;2023-04-29T06:48:28;21.70;;;12.30;;
63536;SDS011;49686;51.880;5.632;2023-04-29T06:50:56;22.60;;;13.65;;
63536;SDS011;49686;51.880;5.632;2023-04-29T06:53:23;23.33;;;14.10;;
63536;SDS011;49686;51.880;5.632;2023-04-29T06:55:50;19.10;;;12.93;;
63536;SDS011;49686;51.880;5.632;2023-04-29T06:58:18;25.52;;;14.50;;
63536;SDS011;49686;51.880;5.632;2023-04-29T07:00:45;26.60;;;15.77;;
63536;SDS011;49686;51.880;5.632;2023-04-29T07:03:13;25.83;;;15.75;;
63536;SDS011;49686;51.880;5.632;2023-04-29T07:05:41;21.00;;;14.07;;
63536;SDS011;49686;51.880;5.632;2023-04-29T07:08:08;24.85;;;14.77;;
63536;SDS011;49686;51.880;5.632;2023-04-29T07:10:35;21.60;;;12.73;;
63536;SDS011;49686;51.880;5.632;2023-04-29T07:13:01;19.83;;;13.00;;
63536;SDS011;49686;51.880;5.632;2023-04-29T07:15:32;20.23;;;13.10;;
63536;SDS011;49686;51.880;5.632;2023-04-29T07:18:02;20.98;;;12.50;;
63536;SDS011;49686;51.880;5.632;2023-04-29T07:20:29;22.50;;;13.52;;
63536;SDS011;49686;51.880;5.632;2023-04-29T07:22:56;20.02;;;13.07;;
63536;SDS011;49686;51.880;5.632;2023-04-29T07:25:22;20.17;;;13.27;;
63536;SDS011;49686;51.880;5.632;2023-04-29T07:27:51;22.60;;;13.23;;
63536;SDS011;49686;51.880;5.632;2023-04-29T07:30:17;18.35;;;12.57;;
63536;SDS011;49686;51.880;5.632;2023-04-29T07:32:45;19.38;;;12.10;;
63536;SDS011;49686;51.880;5.632;2023-04-29T07:35:12;19.08;;;12.38;;
63536;SDS011;49686;51.880;5.632;2023-04-29T07:37:39;21.48;;;12.45;;
63536;SDS011;49686;51.880;5.632;2023-04-29T07:40:09;20.40;;;12.90;;
63536;SDS011;49686;51.880;5.632;2023-04-29T07:42:36;18.65;;;11.70;;
63536;SDS011;49686;51.880;5.632;2023-04-29T07:45:03;18.80;;;11.48;;
63536;SDS011;49686;51.880;5.632;2023-04-29T07:47:30;16.63;;;11.93;;
63536;SDS011;49686;51.880;5.632;2023-04-29T07:49:58;21.27;;;12.02;;
63536;SDS011;49686;51.880;5.632;2023-04-29T07:52:25;18.50;;;10.93;;
63536;SDS011;49686;51.880;5.632;2023-04-29T07:54:52;18.35;;;10.82;;
63536;SDS011;49686;51.880;5.632;2023-04-29T07:57:19;16.08;;;10.23;;
63536;SDS011;49686;51.880;5.632;2023-04-29T07:59:46;16.80;;;10.70;;
63536;SDS011;49686;51.880;5.632;2023-04-29T08:02:16;18.02;;;10.93;;
63536;SDS011;49686;51.880;5.632;2023-04-29T08:04:42;16.45;;;11.10;;
63536;SDS011;49686;51.880;5.632;2023-04-29T08:07:11;20.98;;;11.73;;
63536;SDS011;49686;51.880;5.632;2023-04-29T08:09:38;17.35;;;10.98;;
63536;SDS011;49686;51.880;5.632;2023-04-29T08:12:05;18.20;;;10.40;;
63536;SDS011;49686;51.880;5.632;2023-04-29T08:14:32;15.60;;;9.65;;
63536;SDS011;49686;51.880;5.632;2023-04-29T08:16:58;14.75;;;9.65;;
63536;SDS011;49686;51.880;5.632;2023-04-29T08:19:25;16.77;;;10.48;;
63536;SDS011;49686;51.880;5.632;2023-04-29T08:21:52;15.85;;;9.98;;
63536;SDS011;49686;51.880;5.632;2023-04-29T08:24:20;16.33;;;10.60;;
63536;SDS011;49686;51.880;5.632;2023-04-29T08:26:47;16.35;;;11.05;;
63536;SDS011;49686;51.880;5.632;2023-04-29T08:29:13;15.40;;;9.05;;
63536;SDS011;49686;51.880;5.632;2023-04-29T08:31:40;15.90;;;8.98;;
63536;SDS011;49686;51.880;5.632;2023-04-29T08:34:07;14.70;;;10.35;;
63536;SDS011;49686;51.880;5.632;2023-04-29T08:36:34;15.10;;;9.70;;
63536;SDS011;49686;51.880;5.632;2023-04-29T08:39:01;15.95;;;10.18;;
63536;SDS011;49686;51.880;5.632;2023-04-29T08:41:29;16.20;;;9.45;;
63536;SDS011;49686;51.880;5.632;2023-04-29T08:43:57;15.45;;;9.75;;
63536;SDS011;49686;51.880;5.632;2023-04-29T08:46:25;16.23;;;9.60;;
63536;SDS011;49686;51.880;5.632;2023-04-29T08:48:52;16.02;;;10.57;;
63536;SDS011;49686;51.880;5.632;2023-04-29T08:51:20;18.63;;;10.07;;
63536;SDS011;49686;51.880;5.632;2023-04-29T08:53:47;12.02;;;8.38;;
63536;SDS011;49686;51.880;5.632;2023-04-29T08:56:15;12.48;;;8.43;;
63536;SDS011;49686;51.880;5.632;2023-04-29T08:58:43;12.07;;;9.07;;
63536;SDS011;49686;51.880;5.632;2023-04-29T09:01:10;13.98;;;8.98;;
63536;SDS011;49686;51.880;5.632;2023-04-29T09:03:39;13.03;;;10.03;;
63536;SDS011;49686;51.880;5.632;2023-04-29T09:06:11;12.98;;;8.98;;
63536;SDS011;49686;51.880;5.632;2023-04-29T09:08:38;15.68;;;10.35;;
63536;SDS011;49686;51.880;5.632;2023-04-29T09:11:07;15.15;;;9.25;;
63536;SDS011;49686;51.880;5.632;2023-04-29T09:13:34;16.05;;;9.93;;
63536;SDS011;49686;51.880;5.632;2023-04-29T09:16:03;12.52;;;8.55;;
63536;SDS011;49686;51.880;5.632;2023-04-29T09:18:43;10.85;;;8.18;;
63536;SDS011;49686;51.880;5.632;2023-04-29T09:21:17;12.77;;;8.00;;
63536;SDS011;49686;51.880;5.632;2023-04-29T09:23:48;15.00;;;11.18;;
63536;SDS011;49686;51.880;5.632;2023-04-29T09:26:16;20.70;;;15.98;;
63536;SDS011;49686;51.880;5.632;2023-04-29T09:28:43;21.75;;;13.55;;
63536;SDS011;49686;51.880;5.632;2023-04-29T09:31:12;26.13;;;21.70;;
63536;SDS011;49686;51.880;5.632;2023-04-29T09:36:30;22.85;;;20.42;;
63536;SDS011;49686;51.880;5.632;2023-04-29T09:39:01;16.05;;;12.88;;
63536;SDS011;49686;51.880;5.632;2023-04-29T09:41:28;15.85;;;12.80;;
63536;SDS011;49686;51.880;5.632;2023-04-29T09:44:01;17.95;;;13.95;;
63536;SDS011;49686;51.880;5.632;2023-04-29T09:46:30;12.27;;;9.75;;
63536;SDS011;49686;51.880;5.632;2023-04-29T09:48:58;13.77;;;8.48;;
63536;SDS011;49686;51.880;5.632;2023-04-29T09:51:25;12.02;;;8.13;;
63536;SDS011;49686;51.880;5.632;2023-04-29T09:53:52;12.10;;;7.47;;
63536;SDS011;49686;51.880;5.632;2023-04-29T09:56:19;10.98;;;7.63;;
63536;SDS011;49686;51.880;5.632;2023-04-29T09:58:45;9.73;;;6.00;;
63536;SDS011;49686;51.880;5.632;2023-04-29T10:01:12;11.00;;;6.60;;
63536;SDS011;49686;51.880;5.632;2023-04-29T10:03:43;10.80;;;6.70;;
63536;SDS011;49686;51.880;5.632;2023-04-29T10:06:11;9.13;;;6.28;;
63536;SDS011;49686;51.880;5.632;2023-04-29T10:08:39;8.15;;;6.50;;
63536;SDS011;49686;51.880;5.632;2023-04-29T10:11:06;10.55;;;6.65;;
63536;SDS011;49686;51.880;5.632;2023-04-29T10:13:35;12.02;;;7.03;;
63536;SDS011;49686;51.880;5.632;2023-04-29T10:16:08;8.48;;;5.93;;
63536;SDS011;49686;51.880;5.632;2023-04-29T10:18:43;26.40;;;15.77;;
63536;SDS011;49686;51.880;5.632;2023-04-29T10:21:14;26.48;;;16.23;;
63536;SDS011;49686;51.880;5.632;2023-04-29T10:23:46;11.23;;;8.02;;
63536;SDS011;49686;51.880;5.632;2023-04-29T10:28:41;8.93;;;6.47;;
63536;SDS011;49686;51.880;5.632;2023-04-29T10:31:10;17.27;;;10.95;;
63536;SDS011;49686;51.880;5.632;2023-04-29T10:36:09;14.20;;;9.75;;
63536;SDS011;49686;51.880;5.632;2023-04-29T10:38:38;15.05;;;9.00;;
63536;SDS011;49686;51.880;5.632;2023-04-29T10:41:08;18.00;;;11.98;;
63536;SDS011;49686;51.880;5.632;2023-04-29T10:43:40;13.55;;;8.13;;
63536;SDS011;49686;51.880;5.632;2023-04-29T10:46:16;10.55;;;7.00;;
63536;SDS011;49686;51.880;5.632;2023-04-29T10:48:43;12.27;;;7.88;;
63536;SDS011;49686;51.880;5.632;2023-04-29T10:51:12;10.10;;;7.40;;
63536;SDS011;49686;51.880;5.632;2023-04-29T10:54:06;10.60;;;7.47;;
63536;SDS011;49686;51.880;5.632;2023-04-29T10:56:34;11.02;;;8.35;;
63536;SDS011;49686;51.880;5.632;2023-04-29T10:59:02;13.82;;;8.60;;
63536;SDS011;49686;51.880;5.632;2023-04-29T11:01:39;11.45;;;7.63;;
63536;SDS011;49686;51.880;5.632;2023-04-29T11:04:16;11.07;;;7.60;;
63536;SDS011;49686;51.880;5.632;2023-04-29T11:06:45;11.00;;;7.05;;
63536;SDS011;49686;51.880;5.632;2023-04-29T11:09:23;7.47;;;5.60;;
63536;SDS011;49686;51.880;5.632;2023-04-29T11:11:58;8.00;;;5.95;;
63536;SDS011;49686;51.880;5.632;2023-04-29T11:14:28;7.80;;;5.40;;
63536;SDS011;49686;51.880;5.632;2023-04-29T11:16:56;7.07;;;5.97;;
63536;SDS011;49686;51.880;5.632;2023-04-29T11:19:25;5.68;;;4.78;;
63536;SDS011;49686;51.880;5.632;2023-04-29T11:22:10;7.22;;;5.40;;
63536;SDS011;49686;51.880;5.632;2023-04-29T11:24:48;8.90;;;5.45;;
63536;SDS011;49686;51.880;5.632;2023-04-29T11:27:16;9.05;;;6.03;;
63536;SDS011;49686;51.880;5.632;2023-04-29T11:29:44;11.15;;;6.47;;
63536;SDS011;49686;51.880;5.632;2023-04-29T11:32:11;7.38;;;5.47;;
63536;SDS011;49686;51.880;5.632;2023-04-29T11:34:38;6.65;;;5.35;;
63536;SDS011;49686;51.880;5.632;2023-04-29T11:37:05;7.38;;;5.60;;
63536;SDS011;49686;51.880;5.632;2023-04-29T11:39:33;7.78;;;4.90;;
63536;SDS011;49686;51.880;5.632;2023-04-29T11:42:04;7.10;;;5.38;;
63536;SDS011;49686;51.880;5.632;2023-04-29T11:44:32;9.40;;;5.20;;
63536;SDS011;49686;51.880;5.632;2023-04-29T11:47:00;7.00;;;4.30;;
63536;SDS011;49686;51.880;5.632;2023-04-29T11:49:28;6.23;;;4.50;;
63536;SDS011;49686;51.880;5.632;2023-04-29T11:51:55;9.77;;;6.30;;
63536;SDS011;49686;51.880;5.632;2023-04-29T11:54:24;6.55;;;4.95;;
63536;SDS011;49686;51.880;5.632;2023-04-29T11:56:53;7.10;;;5.57;;
63536;SDS011;49686;51.880;5.632;2023-04-29T11:59:20;7.00;;;5.25;;
63536;SDS011;49686;51.880;5.632;2023-04-29T12:01:47;6.20;;;4.40;;
63536;SDS011;49686;51.880;5.632;2023-04-29T12:04:14;8.20;;;6.45;;
63536;SDS011;49686;51.880;5.632;2023-04-29T12:06:41;8.70;;;5.63;;
63536;SDS011;49686;51.880;5.632;2023-04-29T12:09:08;8.85;;;7.68;;
63536;SDS011;49686;51.880;5.632;2023-04-29T12:11:35;8.25;;;7.43;;
63536;SDS011;49686;51.880;5.632;2023-04-29T12:14:04;7.95;;;6.32;;
63536;SDS011;49686;51.880;5.632;2023-04-29T12:16:31;7.93;;;5.78;;
63536;SDS011;49686;51.880;5.632;2023-04-29T12:18:58;7.18;;;5.53;;
63536;SDS011;49686;51.880;5.632;2023-04-29T12:21:25;7.45;;;5.20;;
63536;SDS011;49686;51.880;5.632;2023-04-29T12:23:52;6.63;;;4.45;;
63536;SDS011;49686;51.880;5.632;2023-04-29T12:26:19;6.70;;;4.25;;
63536;SDS011;49686;51.880;5.632;2023-04-29T12:28:47;7.35;;;4.72;;
63536;SDS011;49686;51.880;5.632;2023-04-29T12:31:15;7.55;;;4.85;;
63536;SDS011;49686;51.880;5.632;2023-04-29T12:33:42;7.18;;;4.70;;
63536;SDS011;49686;51.880;5.632;2023-04-29T12:36:15;5.55;;;4.68;;
63536;SDS011;49686;51.880;5.632;2023-04-29T12:38:42;7.47;;;5.35;;
63536;SDS011;49686;51.880;5.632;2023-04-29T12:41:09;8.13;;;4.85;;
63536;SDS011;49686;51.880;5.632;2023-04-29T12:43:37;7.72;;;4.88;;
63536;SDS011;49686;51.880;5.632;2023-04-29T12:46:04;7.10;;;4.93;;
63536;SDS011;49686;51.880;5.632;2023-04-29T12:48:34;6.60;;;4.63;;
63536;SDS011;49686;51.880;5.632;2023-04-29T12:51:02;5.90;;;4.40;;
63536;SDS011;49686;51.880;5.632;2023-04-29T12:53:30;8.75;;;4.57;;
63536;SDS011;49686;51.880;5.632;2023-04-29T12:55:57;6.63;;;4.82;;
63536;SDS011;49686;51.880;5.632;2023-04-29T12:58:24;8.45;;;6.63;;
63536;SDS011;49686;51.880;5.632;2023-04-29T13:00:54;6.70;;;4.90;;
63536;SDS011;49686;51.880;5.632;2023-04-29T13:03:20;7.60;;;5.93;;
63536;SDS011;49686;51.880;5.632;2023-04-29T13:05:49;6.63;;;4.85;;
63536;SDS011;49686;51.880;5.632;2023-04-29T13:08:16;6.55;;;4.55;;
63536;SDS011;49686;51.880;5.632;2023-04-29T13:10:43;8.63;;;4.82;;
63536;SDS011;49686;51.880;5.632;2023-04-29T13:13:12;5.72;;;4.45;;
63536;SDS011;49686;51.880;5.632;2023-04-29T13:15:39;5.68;;;4.60;;
63536;SDS011;49686;51.880;5.632;2023-04-29T13:18:06;6.57;;;4.50;;
63536;SDS011;49686;51.880;5.632;2023-04-29T13:20:33;5.30;;;4.30;;
63536;SDS011;49686;51.880;5.632;2023-04-29T13:23:08;6.35;;;4.10;;
63536;SDS011;49686;51.880;5.632;2023-04-29T13:25:35;5.97;;;4.20;;
63536;SDS011;49686;51.880;5.632;2023-04-29T13:28:02;6.72;;;4.97;;
63536;SDS011;49686;51.880;5.632;2023-04-29T13:30:29;6.85;;;4.28;;
63536;SDS011;49686;51.880;5.632;2023-04-29T13:32:56;6.22;;;4.75;;
63536;SDS011;49686;51.880;5.632;2023-04-29T13:35:29;7.53;;;3.95;;
63536;SDS011;49686;51.880;5.632;2023-04-29T13:37:56;5.93;;;4.55;;
63536;SDS011;49686;51.880;5.632;2023-04-29T13:40:24;6.95;;;5.53;;
63536;SDS011;49686;51.880;5.632;2023-04-29T13:42:53;8.80;;;7.25;;
63536;SDS011;49686;51.880;5.632;2023-04-29T13:45:31;10.10;;;8.30;;
63536;SDS011;49686;51.880;5.632;2023-04-29T13:47:58;7.70;;;5.75;;
63536;SDS011;49686;51.880;5.632;2023-04-29T13:50:44;7.05;;;4.55;;
63536;SDS011;49686;51.880;5.632;2023-04-29T13:53:14;6.43;;;4.35;;
63536;SDS011;49686;51.880;5.632;2023-04-29T13:55:45;7.18;;;4.40;;
63536;SDS011;49686;51.880;5.632;2023-04-29T13:58:32;6.80;;;4.20;;
63536;SDS011;49686;51.880;5.632;2023-04-29T14:01:18;4.95;;;3.85;;
63536;SDS011;49686;51.880;5.632;2023-04-29T14:03:48;7.57;;;5.20;;
63536;SDS011;49686;51.880;5.632;2023-04-29T14:06:15;5.65;;;3.80;;
63536;SDS011;49686;51.880;5.632;2023-04-29T14:08:42;9.45;;;6.13;;
63536;SDS011;49686;51.880;5.632;2023-04-29T14:11:11;10.95;;;8.50;;
63536;SDS011;49686;51.880;5.632;2023-04-29T14:13:37;6.15;;;5.13;;
63536;SDS011;49686;51.880;5.632;2023-04-29T14:16:04;7.00;;;4.10;;
63536;SDS011;49686;51.880;5.632;2023-04-29T14:18:31;6.05;;;4.60;;
63536;SDS011;49686;51.880;5.632;2023-04-29T14:20:58;6.55;;;5.10;;
63536;SDS011;49686;51.880;5.632;2023-04-29T14:23:25;6.97;;;3.97;;
63536;SDS011;49686;51.880;5.632;2023-04-29T14:25:52;8.27;;;6.00;;
63536;SDS011;49686;51.880;5.632;2023-04-29T14:28:33;7.85;;;4.55;;
63536;SDS011;49686;51.880;5.632;2023-04-29T14:31:02;6.28;;;4.20;;
63536;SDS011;49686;51.880;5.632;2023-04-29T14:33:29;7.07;;;3.97;;
63536;SDS011;49686;51.880;5.632;2023-04-29T14:35:55;7.70;;;4.85;;
63536;SDS011;49686;51.880;5.632;2023-04-29T14:38:22;7.60;;;4.50;;
63536;SDS011;49686;51.880;5.632;2023-04-29T14:40:49;8.68;;;4.30;;
63536;SDS011;49686;51.880;5.632;2023-04-29T14:43:16;5.68;;;3.88;;
63536;SDS011;49686;51.880;5.632;2023-04-29T14:45:44;4.22;;;3.30;;